Kezdőlap
METAR-TAF:

METAR-TAF

Repülőterek :

London-City repülőtér

London, Anglia

földrajzi szélesség: 51-30N, földrajzi hosszúság: 000-03E, magasság: 5 m

Jelenlegi meteorológiai megfigyelések

A jelentés 14 perccel ezelõtt készült, 15:20 UTC
Délnyugati szél 12 kt széllökések: 24 kt
Hőmérséklet 10°C
Páratartalom 62%
Légköri nyomás 998 hPa
Látótávolság 10 km, vagy több

METAR: EGLC 151520Z AUTO 23012G24KT 9999 NCD 10/03 Q0998

Idő: 15:34 (15:34 UTC)

Előrejelzés

A jelentés 1 órával és 37 perccel ezelõtt készült, 13:57 UTC
Az előrejelzés 15-én 15 óra UTC és 15-én 24 óra UTC között érvényes
Délnyugati szél 12 kt
Látótávolság 10 km, vagy több
Kevés felhő 3000 lábon
Valószínűség 30% :
15-én 17 óra UTC és 15-én 21 óra UTC között ideiglenes
Nyugati szél 15 kt széllökések: 25 kt
Látótávolság: 6000 m
Szakadozott felhőzet 1400 lábon
záporok

TAF: EGLC 151357Z 1515/1524 23012KT 9999 FEW030 PROB30 TEMPO 1517/1521 26015G25KT 6000 SHRA BKN014

Meteorológiai megfigyelések és előrejelzések több, mint 4000 repülőtéren (METAR és TAF jelentéseket).

A térképen piros és sárga pontok jelzik az elérhető meteorológiai állomásokat.

Mozgassa az egeret a pont fölött, hogy megjelenjen az állomás neve.

Azután kattintson az időjárási megfigyelések és előrejelzések megtekintéséhez.

A térkép megváltoztatása: kattintson a fekete keresztel jelölt zöld gombra ráközelítéshez, a vonallal jelölt zöld gombra távolításhoz, vagy a zöld nyilakra a szomszédos térképek eléréséhez.


METAR-TAF: